Charqueadas, Brazil
Current Conditions -  °F | °C
As of 10:00 AM on Thursday 29 Jan 2015 (Local Time) from SBPA Reporting Station
Light Rain Light Rain  
Wind Chill: 75°   Ceiling: 900
Heat Index: 75°   Visibility: 3mi
Dew Point: 75°   Wind: 6mph
Humidity: 100%   Direction: 290°WNW
Pressure: NA   Gusts: NA
Location:  29.95°S, 51.63°W
Report Text: SBPA 291200Z 29005KT 5000 -RA BR BKN009 BKN020 OVC040 24/24 Q1008
Loading
Personal Weather Stations






























Interactive Weather Map New forecast layout! Learn more

10-Day Weather Forecast

Advertisements
Track Severe Weather on mobile